createdAt,value
2017-12-22T00:00:33.781Z,0
2017-12-22T00:01:34.488Z,0
2017-12-22T00:02:35.196Z,0
2017-12-22T00:03:35.910Z,0
2017-12-22T00:04:36.612Z,0
2017-12-22T00:05:37.332Z,0
2017-12-22T00:06:38.052Z,0
2017-12-22T00:07:38.759Z,0
2017-12-22T00:08:39.467Z,0
2017-12-22T00:09:40.188Z,0
2017-12-22T00:10:40.893Z,0
2017-12-22T00:11:41.613Z,0
2017-12-22T00:12:42.329Z,0
2017-12-22T00:13:43.032Z,0
2017-12-22T00:14:43.742Z,0
2017-12-22T00:15:44.449Z,0
2017-12-22T00:16:45.156Z,0
2017-12-22T00:17:45.863Z,0
2017-12-22T00:18:46.586Z,0
2017-12-22T00:19:47.293Z,0
2017-12-22T00:20:48.015Z,0
2017-12-22T00:21:48.736Z,0
2017-12-22T00:22:49.444Z,0
2017-12-22T00:23:50.152Z,0
2017-12-22T00:24:50.871Z,0
2017-12-22T00:25:51.569Z,0
2017-12-22T00:26:52.278Z,0
2017-12-22T00:27:52.985Z,0
2017-12-22T00:28:53.694Z,0
2017-12-22T00:29:54.401Z,0
2017-12-22T00:30:55.114Z,0
2017-12-22T00:31:55.814Z,0
2017-12-22T00:32:56.535Z,0
2017-12-22T00:33:57.242Z,0
2017-12-22T00:34:57.948Z,0
2017-12-22T00:35:58.654Z,0
2017-12-22T00:36:59.362Z,0
2017-12-22T00:38:00.085Z,0
2017-12-22T00:39:00.795Z,0
2017-12-22T00:40:01.502Z,0
2017-12-22T00:41:02.222Z,0
2017-12-22T00:42:02.930Z,0
2017-12-22T00:43:03.639Z,0
2017-12-22T00:44:04.348Z,0
2017-12-22T00:45:05.055Z,0
2017-12-22T00:46:05.762Z,0
2017-12-22T00:47:06.467Z,0
2017-12-22T00:48:07.176Z,0
2017-12-22T00:49:07.884Z,0
2017-12-22T00:50:08.592Z,0
2017-12-22T00:51:09.315Z,0
2017-12-22T00:52:10.023Z,0
2017-12-22T00:53:10.730Z,0
2017-12-22T00:54:11.438Z,0
2017-12-22T00:55:12.146Z,0
2017-12-22T00:56:12.865Z,0
2017-12-22T00:57:13.573Z,0
2017-12-22T00:58:14.295Z,0
2017-12-22T00:59:15.017Z,0
2017-12-22T01:00:15.737Z,0
2017-12-22T01:01:16.445Z,0
2017-12-22T01:02:17.154Z,0
2017-12-22T01:03:17.869Z,0
2017-12-22T01:04:18.572Z,0
2017-12-22T01:05:19.279Z,0
2017-12-22T01:06:19.989Z,0
2017-12-22T01:07:20.712Z,0
2017-12-22T01:08:21.417Z,0
2017-12-22T01:09:22.126Z,0
2017-12-22T01:10:22.833Z,0
2017-12-22T01:11:23.540Z,0
2017-12-22T01:12:24.246Z,0
2017-12-22T01:13:24.953Z,0
2017-12-22T01:14:25.673Z,0
2017-12-22T01:15:26.395Z,0
2017-12-22T01:16:27.104Z,0
2017-12-22T01:17:27.813Z,0
2017-12-22T01:18:28.523Z,0
2017-12-22T01:19:29.231Z,0
2017-12-22T01:20:29.951Z,0
2017-12-22T01:21:30.660Z,0
2017-12-22T01:22:31.369Z,0
2017-12-22T01:23:32.077Z,0
2017-12-22T01:24:32.800Z,0
2017-12-22T01:25:33.510Z,0
2017-12-22T01:26:34.218Z,0
2017-12-22T01:27:34.926Z,0
2017-12-22T01:28:35.635Z,0
2017-12-22T01:29:36.351Z,0
2017-12-22T01:30:37.062Z,0
2017-12-22T01:31:37.772Z,0
2017-12-22T01:32:38.481Z,0
2017-12-22T01:33:39.190Z,0
2017-12-22T01:34:39.914Z,0
2017-12-22T01:35:40.622Z,0
2017-12-22T01:36:41.331Z,0
2017-12-22T01:37:42.040Z,0
2017-12-22T01:38:42.747Z,0
2017-12-22T01:39:43.458Z,0
2017-12-22T01:40:44.166Z,0
2017-12-22T01:41:44.874Z,0
2017-12-22T01:42:45.583Z,0
2017-12-22T01:43:46.291Z,0
2017-12-22T01:44:47.002Z,0
2017-12-22T01:45:47.720Z,0
2017-12-22T01:46:48.429Z,0
2017-12-22T01:47:49.152Z,0
2017-12-22T01:48:49.862Z,0
2017-12-22T01:49:50.571Z,0
2017-12-22T01:50:51.280Z,0
2017-12-22T01:51:51.991Z,0
2017-12-22T01:52:52.708Z,0
2017-12-22T01:53:53.417Z,0
2017-12-22T01:54:54.126Z,0
2017-12-22T01:55:54.835Z,0
2017-12-22T01:56:55.542Z,0
2017-12-22T01:57:56.252Z,0
2017-12-22T01:58:57.021Z,0
2017-12-22T01:59:57.684Z,0
2017-12-22T02:00:58.393Z,0
2017-12-22T02:01:59.107Z,0
2017-12-22T02:02:59.809Z,0
2017-12-22T02:04:00.518Z,0
2017-12-22T02:05:01.226Z,0
2017-12-22T02:06:01.934Z,0
2017-12-22T02:07:02.641Z,0
2017-12-22T02:08:03.350Z,0
2017-12-22T02:09:04.057Z,0
2017-12-22T02:10:04.766Z,0
2017-12-22T02:11:05.476Z,0
2017-12-22T02:12:06.186Z,0
2017-12-22T02:13:06.897Z,0
2017-12-22T02:14:07.621Z,0
2017-12-22T02:15:08.343Z,0
2017-12-22T02:16:09.051Z,0
2017-12-22T02:17:09.760Z,0
2017-12-22T02:18:10.469Z,0
2017-12-22T02:19:11.179Z,0
2017-12-22T02:20:11.887Z,0
2017-12-22T02:21:12.608Z,0
2017-12-22T02:22:13.331Z,0
2017-12-22T02:23:14.042Z,0
2017-12-22T02:24:14.751Z,0
2017-12-22T02:25:15.459Z,0
2017-12-22T02:26:16.167Z,0
2017-12-22T02:27:16.873Z,0
2017-12-22T02:28:17.580Z,0
2017-12-22T02:29:18.290Z,0
2017-12-22T02:30:18.999Z,0
2017-12-22T02:31:19.709Z,0
2017-12-22T02:32:20.418Z,0
2017-12-22T02:33:21.126Z,0
2017-12-22T02:34:21.837Z,0
2017-12-22T02:35:22.559Z,0
2017-12-22T02:36:23.268Z,0
2017-12-22T02:37:23.977Z,0
2017-12-22T02:38:24.686Z,0
2017-12-22T02:39:25.398Z,0
2017-12-22T02:40:26.116Z,0
2017-12-22T02:41:26.826Z,0
2017-12-22T02:42:27.534Z,0
2017-12-22T02:43:28.242Z,0
2017-12-22T02:44:28.966Z,0
2017-12-22T02:45:29.688Z,0
2017-12-22T02:46:30.397Z,0
2017-12-22T02:47:31.103Z,0
2017-12-22T02:48:31.812Z,0
2017-12-22T02:49:32.521Z,0
2017-12-22T02:50:33.229Z,0
2017-12-22T02:51:33.939Z,0
2017-12-22T02:52:34.646Z,0
2017-12-22T02:53:35.355Z,0
2017-12-22T02:54:36.063Z,0
2017-12-22T02:55:36.774Z,0
2017-12-22T02:56:37.495Z,0
2017-12-22T02:57:38.204Z,0
2017-12-22T02:58:38.912Z,0
2017-12-22T02:59:39.622Z,0
2017-12-22T03:00:40.329Z,0
2017-12-22T03:01:41.036Z,0
2017-12-22T03:02:41.744Z,0
2017-12-22T03:03:42.453Z,0
2017-12-22T03:04:43.160Z,0
2017-12-22T03:05:43.881Z,0
2017-12-22T03:06:44.590Z,0
2017-12-22T03:07:45.299Z,0
2017-12-22T03:08:46.007Z,0
2017-12-22T03:09:46.719Z,0
2017-12-22T03:10:47.424Z,0
2017-12-22T03:11:48.134Z,0
2017-12-22T03:12:48.842Z,0
2017-12-22T03:13:49.556Z,0
2017-12-22T03:14:50.274Z,0
2017-12-22T03:15:50.981Z,0
2017-12-22T03:16:51.700Z,0
2017-12-22T03:17:52.410Z,0
2017-12-22T03:18:53.119Z,0
2017-12-22T03:19:53.827Z,0
2017-12-22T03:20:54.535Z,0
2017-12-22T03:21:55.245Z,0
2017-12-22T03:22:55.951Z,0
2017-12-22T03:23:56.662Z,0
2017-12-22T03:24:57.367Z,0
2017-12-22T03:25:58.075Z,0
2017-12-22T03:26:58.783Z,0
2017-12-22T03:27:59.492Z,0
2017-12-22T03:29:00.198Z,0
2017-12-22T03:30:00.908Z,0
2017-12-22T03:31:01.617Z,0
2017-12-22T03:32:02.339Z,0
2017-12-22T03:33:03.048Z,0
2017-12-22T03:34:03.755Z,0
2017-12-22T03:35:04.463Z,0
2017-12-22T03:36:05.171Z,0
2017-12-22T03:37:05.880Z,0
2017-12-22T03:38:06.594Z,0
2017-12-22T03:39:07.297Z,0
2017-12-22T03:40:08.017Z,0
2017-12-22T03:41:08.725Z,0
2017-12-22T03:42:09.433Z,0
2017-12-22T03:43:10.141Z,0
2017-12-22T03:44:10.850Z,0
2017-12-22T03:45:11.560Z,0
2017-12-22T03:46:12.282Z,0
2017-12-22T03:47:12.988Z,0
2017-12-22T03:48:13.697Z,0
2017-12-22T03:49:14.407Z,0
2017-12-22T03:50:15.115Z,0
2017-12-22T03:51:15.823Z,0
2017-12-22T03:52:16.532Z,0
2017-12-22T03:53:17.242Z,0
2017-12-22T03:54:17.952Z,0
2017-12-22T03:55:18.661Z,0
2017-12-22T03:56:19.372Z,0
2017-12-22T03:57:20.081Z,0
2017-12-22T03:58:20.788Z,0
2017-12-22T03:59:21.512Z,0
2017-12-22T04:00:22.222Z,0
2017-12-22T04:01:22.945Z,0
2017-12-22T04:02:23.658Z,0
2017-12-22T04:03:24.365Z,0
2017-12-22T04:04:25.072Z,0
2017-12-22T04:05:25.780Z,0
2017-12-22T04:06:26.488Z,0
2017-12-22T04:07:27.211Z,0
2017-12-22T04:08:27.923Z,0
2017-12-22T04:09:28.647Z,0
2017-12-22T04:10:29.368Z,0
2017-12-22T04:11:30.076Z,0
2017-12-22T04:12:30.787Z,0
2017-12-22T04:13:31.498Z,0
2017-12-22T04:14:32.221Z,0
2017-12-22T04:15:32.930Z,0
2017-12-22T04:16:33.638Z,0
2017-12-22T04:17:34.363Z,0
2017-12-22T04:18:35.070Z,0
2017-12-22T04:19:35.778Z,0
2017-12-22T04:20:36.489Z,0
2017-12-22T04:21:37.200Z,0
2017-12-22T04:22:37.920Z,0
2017-12-22T04:23:38.642Z,0
2017-12-22T04:24:39.351Z,0
2017-12-22T04:25:40.075Z,0
2017-12-22T04:26:40.784Z,0
2017-12-22T04:27:41.490Z,0
2017-12-22T04:28:42.212Z,0
2017-12-22T04:29:42.932Z,0
2017-12-22T04:30:43.654Z,0
2017-12-22T04:31:44.365Z,0
2017-12-22T04:32:45.073Z,0
2017-12-22T04:33:45.780Z,0
2017-12-22T04:34:46.500Z,0
2017-12-22T04:35:47.210Z,0
2017-12-22T04:36:47.919Z,0
2017-12-22T04:37:48.628Z,0
2017-12-22T04:38:49.335Z,0
2017-12-22T04:39:50.043Z,0
2017-12-22T04:40:50.753Z,0
2017-12-22T04:41:51.462Z,0
2017-12-22T04:42:52.171Z,0
2017-12-22T04:43:52.880Z,0
2017-12-22T04:44:53.590Z,0
2017-12-22T04:45:54.301Z,0
2017-12-22T04:46:55.010Z,0
2017-12-22T04:47:55.718Z,0
2017-12-22T04:48:56.426Z,0
2017-12-22T04:49:57.135Z,0
2017-12-22T04:50:57.843Z,0
2017-12-22T04:51:58.553Z,0
2017-12-22T04:52:59.274Z,0
2017-12-22T04:53:59.985Z,0
2017-12-22T04:55:00.693Z,0
2017-12-22T04:56:01.403Z,0
2017-12-22T04:57:02.127Z,0
2017-12-22T04:58:02.838Z,0
2017-12-22T04:59:03.545Z,0
2017-12-22T05:00:04.253Z,0
2017-12-22T05:01:04.960Z,0
2017-12-22T05:02:05.671Z,0
2017-12-22T05:03:06.391Z,0
2017-12-22T05:04:07.100Z,0
2017-12-22T05:05:07.811Z,0
2017-12-22T05:06:08.519Z,0
2017-12-22T05:07:09.241Z,0
2017-12-22T05:08:09.949Z,0
2017-12-22T05:09:10.656Z,0
2017-12-22T05:10:11.377Z,0
2017-12-22T05:11:12.088Z,0
2017-12-22T05:12:12.813Z,0
2017-12-22T05:13:13.523Z,0
2017-12-22T05:14:14.232Z,0
2017-12-22T05:15:14.959Z,0
2017-12-22T05:16:15.666Z,0
2017-12-22T05:17:16.376Z,0
2017-12-22T05:18:17.083Z,0
2017-12-22T05:19:17.791Z,0
2017-12-22T05:20:18.516Z,0
2017-12-22T05:21:19.226Z,0
2017-12-22T05:22:19.934Z,0
2017-12-22T05:23:20.644Z,0
2017-12-22T05:24:21.354Z,0
2017-12-22T05:25:22.074Z,0
2017-12-22T05:26:22.781Z,0
2017-12-22T05:27:23.490Z,0
2017-12-22T05:28:24.214Z,0
2017-12-22T05:29:24.924Z,0
2017-12-22T05:30:25.633Z,0
2017-12-22T05:31:26.355Z,0
2017-12-22T05:32:27.064Z,0
2017-12-22T05:33:27.785Z,0
2017-12-22T05:34:28.511Z,0
2017-12-22T05:35:29.216Z,0
2017-12-22T05:36:29.924Z,0
2017-12-22T05:37:30.634Z,0
2017-12-22T05:38:31.355Z,0
2017-12-22T05:39:32.077Z,0
2017-12-22T05:40:32.800Z,0
2017-12-22T05:41:33.523Z,0
2017-12-22T05:42:34.230Z,0
2017-12-22T05:43:34.941Z,0
2017-12-22T05:44:35.649Z,0
2017-12-22T05:45:36.360Z,0
2017-12-22T05:46:37.082Z,0
2017-12-22T05:47:37.791Z,0
2017-12-22T05:48:38.499Z,0
2017-12-22T05:49:39.211Z,0
2017-12-22T05:50:39.930Z,0
2017-12-22T05:51:40.639Z,0
2017-12-22T05:52:41.346Z,0
2017-12-22T05:53:42.054Z,0
2017-12-22T05:54:42.778Z,0
2017-12-22T05:55:43.487Z,0
2017-12-22T05:56:44.197Z,0
2017-12-22T05:57:44.906Z,0
2017-12-22T05:58:45.616Z,0
2017-12-22T05:59:46.325Z,0
2017-12-22T06:00:47.035Z,0
2017-12-22T06:01:47.744Z,0
2017-12-22T06:02:48.463Z,0
2017-12-22T06:03:49.172Z,0
2017-12-22T06:04:49.880Z,0
2017-12-22T06:05:50.606Z,0
2017-12-22T06:06:51.329Z,0
2017-12-22T06:07:52.042Z,0
2017-12-22T06:08:52.764Z,0
2017-12-22T06:09:53.475Z,0
2017-12-22T06:10:54.185Z,0
2017-12-22T06:11:54.896Z,0
2017-12-22T06:12:55.604Z,0
2017-12-22T06:13:56.313Z,0
2017-12-22T06:14:57.037Z,0
2017-12-22T06:15:57.761Z,0
2017-12-22T06:16:58.470Z,0
2017-12-22T06:17:59.181Z,0
2017-12-22T06:18:59.892Z,0
2017-12-22T06:20:00.601Z,0
2017-12-22T06:21:01.323Z,0
2017-12-22T06:22:02.050Z,0
2017-12-22T06:23:02.762Z,0
2017-12-22T06:24:03.474Z,0
2017-12-22T06:25:04.182Z,0
2017-12-22T06:26:04.903Z,0
2017-12-22T06:27:05.634Z,0
2017-12-22T06:28:06.345Z,0
2017-12-22T06:29:07.053Z,0
2017-12-22T06:30:07.762Z,0
2017-12-22T06:31:08.471Z,0
2017-12-22T06:32:09.180Z,0
2017-12-22T06:33:09.888Z,0
2017-12-22T06:34:10.599Z,0
2017-12-22T06:35:11.306Z,0
2017-12-22T06:36:12.015Z,0
2017-12-22T06:37:12.738Z,0
2017-12-22T06:38:13.447Z,0
2017-12-22T06:39:14.157Z,0
2017-12-22T06:40:14.867Z,0
2017-12-22T06:41:15.579Z,0
2017-12-22T06:42:16.288Z,0
2017-12-22T06:43:16.998Z,0
2017-12-22T06:44:17.707Z,0
2017-12-22T06:45:18.415Z,0
2017-12-22T06:46:19.125Z,0
2017-12-22T06:47:19.847Z,0
2017-12-22T06:48:20.557Z,0
2017-12-22T06:49:21.314Z,0
2017-12-22T06:50:21.974Z,0
2017-12-22T06:51:22.698Z,0
2017-12-22T06:52:23.407Z,0
2017-12-22T06:53:24.117Z,0
2017-12-22T06:54:24.825Z,0
2017-12-22T06:55:25.535Z,0
2017-12-22T06:56:26.257Z,0
2017-12-22T06:57:26.968Z,0
2017-12-22T06:58:27.684Z,0
2017-12-22T06:59:28.387Z,0
2017-12-22T07:00:29.098Z,0
2017-12-22T07:01:29.809Z,0
2017-12-22T07:02:30.523Z,0
2017-12-22T07:03:31.232Z,0
2017-12-22T07:04:31.941Z,0
2017-12-22T07:05:32.663Z,0
2017-12-22T07:06:33.374Z,0
2017-12-22T07:07:34.082Z,0
2017-12-22T07:08:34.792Z,0
2017-12-22T07:09:35.500Z,0
2017-12-22T07:10:36.226Z,0
2017-12-22T07:11:36.936Z,0
2017-12-22T07:12:37.654Z,0
2017-12-22T07:13:38.364Z,0
2017-12-22T07:14:39.073Z,0
2017-12-22T07:15:39.790Z,0
2017-12-22T07:16:40.507Z,0
2017-12-22T07:17:41.219Z,0
2017-12-22T07:18:41.942Z,0
2017-12-22T07:19:42.667Z,0
2017-12-22T07:20:43.378Z,0
2017-12-22T07:21:44.088Z,0
2017-12-22T07:22:44.801Z,0
2017-12-22T07:23:45.525Z,0
2017-12-22T07:24:46.234Z,0
2017-12-22T07:25:46.960Z,0
2017-12-22T07:26:47.677Z,0
2017-12-22T07:27:48.414Z,0
2017-12-22T07:28:49.145Z,0
2017-12-22T07:29:49.855Z,0
2017-12-22T07:30:50.566Z,0
2017-12-22T07:31:51.290Z,0
2017-12-22T07:32:52.018Z,0
2017-12-22T07:33:52.724Z,0
2017-12-22T07:34:53.448Z,0
2017-12-22T07:35:54.171Z,0
2017-12-22T07:36:54.882Z,0
2017-12-22T07:37:55.613Z,0
2017-12-22T07:38:56.320Z,0
2017-12-22T07:39:57.031Z,0
2017-12-22T07:40:57.755Z,0
2017-12-22T07:41:58.467Z,0
2017-12-22T07:42:59.188Z,0
2017-12-22T07:43:59.904Z,0
2017-12-22T07:45:00.612Z,0
2017-12-22T07:46:01.335Z,0
2017-12-22T07:47:02.060Z,0
2017-12-22T07:48:02.772Z,0
2017-12-22T07:49:03.484Z,0
2017-12-22T07:50:04.219Z,5
2017-12-22T07:51:04.932Z,5
2017-12-22T07:52:05.643Z,5
2017-12-22T07:53:06.356Z,5
2017-12-22T07:54:07.068Z,5
2017-12-22T07:55:07.782Z,5
2017-12-22T07:56:08.493Z,5
2017-12-22T07:57:09.204Z,5
2017-12-22T07:58:09.917Z,5
2017-12-22T07:59:10.627Z,5
2017-12-22T08:00:11.342Z,5
2017-12-22T08:01:12.054Z,5
2017-12-22T08:02:12.765Z,5
2017-12-22T08:03:13.476Z,5
2017-12-22T08:04:14.188Z,5
2017-12-22T08:05:14.900Z,5
2017-12-22T08:06:15.612Z,5
2017-12-22T08:07:16.324Z,5
2017-12-22T08:08:17.036Z,5
2017-12-22T08:09:17.751Z,5
2017-12-22T08:10:18.478Z,5
2017-12-22T08:11:19.188Z,5
2017-12-22T08:12:19.900Z,5
2017-12-22T08:13:20.611Z,5
2017-12-22T08:14:21.324Z,5
2017-12-22T08:15:22.037Z,5
2017-12-22T08:16:22.748Z,5
2017-12-22T08:17:23.459Z,5
2017-12-22T08:18:24.170Z,5
2017-12-22T08:19:24.885Z,5
2017-12-22T08:20:25.596Z,5
2017-12-22T08:21:26.312Z,5
2017-12-22T08:22:27.039Z,5
2017-12-22T08:23:27.750Z,5
2017-12-22T08:24:28.462Z,5
2017-12-22T08:25:29.177Z,10
2017-12-22T08:26:29.890Z,10
2017-12-22T08:27:30.621Z,10
2017-12-22T08:28:31.330Z,10
2017-12-22T08:29:32.056Z,10
2017-12-22T08:30:32.770Z,10
2017-12-22T08:31:33.485Z,10
2017-12-22T08:32:34.211Z,10
2017-12-22T08:33:34.923Z,10
2017-12-22T08:34:35.637Z,15
2017-12-22T08:35:36.364Z,15
2017-12-22T08:36:37.078Z,20
2017-12-22T08:37:37.791Z,20
2017-12-22T08:38:38.505Z,20
2017-12-22T08:39:39.220Z,25
2017-12-22T08:40:39.933Z,25
2017-12-22T08:41:40.658Z,25
2017-12-22T08:42:41.370Z,25
2017-12-22T08:43:42.085Z,30
2017-12-22T08:44:42.814Z,30
2017-12-22T08:45:43.542Z,35
2017-12-22T08:46:44.257Z,45
2017-12-22T08:47:44.972Z,50
2017-12-22T08:48:45.685Z,50
2017-12-22T08:49:46.401Z,50
2017-12-22T08:50:47.115Z,45
2017-12-22T08:51:47.828Z,40
2017-12-22T08:52:48.543Z,40
2017-12-22T08:53:49.274Z,40
2017-12-22T08:54:49.989Z,40
2017-12-22T08:55:50.702Z,40
2017-12-22T08:56:51.432Z,35
2017-12-22T08:57:52.146Z,35
2017-12-22T08:58:52.860Z,30
2017-12-22T08:59:53.587Z,30
2017-12-22T09:00:54.301Z,30
2017-12-22T09:01:55.014Z,30
2017-12-22T09:02:55.728Z,25
2017-12-22T09:03:56.442Z,25
2017-12-22T09:04:57.155Z,25
2017-12-22T09:05:57.869Z,25
2017-12-22T09:06:58.594Z,25
2017-12-22T09:07:59.320Z,25
2017-12-22T09:09:00.035Z,25
2017-12-22T09:10:00.763Z,25
2017-12-22T09:11:01.476Z,25
2017-12-22T09:12:02.190Z,25
2017-12-22T09:13:02.903Z,25
2017-12-22T09:14:03.619Z,25
2017-12-22T09:15:04.349Z,25
2017-12-22T09:16:05.059Z,25
2017-12-22T09:17:05.787Z,25
2017-12-22T09:18:06.500Z,25
2017-12-22T09:19:07.217Z,30
2017-12-22T09:20:07.927Z,30
2017-12-22T09:21:08.644Z,35
2017-12-22T09:22:09.358Z,35
2017-12-22T09:23:10.075Z,40
2017-12-22T09:24:10.791Z,45
2017-12-22T09:25:11.504Z,45
2017-12-22T09:26:12.220Z,50
2017-12-22T09:27:12.935Z,50
2017-12-22T09:28:13.650Z,50
2017-12-22T09:29:14.379Z,55
2017-12-22T09:30:15.198Z,60
2017-12-22T09:31:15.810Z,60
2017-12-22T09:32:16.523Z,60
2017-12-22T09:33:17.252Z,65
2017-12-22T09:34:17.968Z,70
2017-12-22T09:35:18.683Z,70
2017-12-22T09:36:19.398Z,70
2017-12-22T09:37:20.114Z,75
2017-12-22T09:38:20.827Z,85
2017-12-22T09:39:21.556Z,95
2017-12-22T09:40:22.270Z,95
2017-12-22T09:41:22.988Z,90
2017-12-22T09:42:23.704Z,100
2017-12-22T09:43:24.419Z,120
2017-12-22T09:44:25.137Z,120
2017-12-22T09:45:25.851Z,115
2017-12-22T09:46:26.569Z,105
2017-12-22T09:47:27.285Z,90
2017-12-22T09:48:28.000Z,85
2017-12-22T09:49:28.715Z,80
2017-12-22T09:50:29.430Z,85
2017-12-22T09:51:30.144Z,90
2017-12-22T09:52:30.858Z,90
2017-12-22T09:53:31.574Z,95
2017-12-22T09:54:32.289Z,95
2017-12-22T09:55:33.004Z,90
2017-12-22T09:56:33.720Z,80
2017-12-22T09:57:34.449Z,75
2017-12-22T09:58:35.176Z,75
2017-12-22T09:59:35.893Z,80
2017-12-22T10:00:36.607Z,80
2017-12-22T10:01:37.322Z,85
2017-12-22T10:02:38.040Z,85
2017-12-22T10:03:38.755Z,85
2017-12-22T10:04:39.468Z,80
2017-12-22T10:05:40.183Z,70
2017-12-22T10:06:40.899Z,70
2017-12-22T10:07:41.629Z,65
2017-12-22T10:08:42.344Z,60
2017-12-22T10:09:43.057Z,55
2017-12-22T10:10:43.784Z,55
2017-12-22T10:11:44.499Z,55
2017-12-22T10:12:45.214Z,50
2017-12-22T10:13:45.929Z,55
2017-12-22T10:14:46.643Z,55
2017-12-22T10:15:47.370Z,60
2017-12-22T10:16:48.085Z,60
2017-12-22T10:17:48.802Z,65
2017-12-22T10:18:49.515Z,65
2017-12-22T10:19:50.242Z,65
2017-12-22T10:20:50.957Z,55
2017-12-22T10:21:51.672Z,50
2017-12-22T10:22:52.387Z,55
2017-12-22T10:23:53.100Z,60
2017-12-22T10:24:53.815Z,65
2017-12-22T10:25:54.530Z,65
2017-12-22T10:26:55.246Z,65
2017-12-22T10:27:55.960Z,60
2017-12-22T10:28:56.690Z,60
2017-12-22T10:29:57.420Z,60
2017-12-22T10:30:58.148Z,65
2017-12-22T10:31:58.881Z,65
2017-12-22T10:32:59.605Z,60
2017-12-22T10:34:00.320Z,60
2017-12-22T10:35:01.036Z,60
2017-12-22T10:36:01.762Z,60
2017-12-22T10:37:02.478Z,60
2017-12-22T10:38:03.206Z,65
2017-12-22T10:39:03.937Z,60
2017-12-22T10:40:04.649Z,65
2017-12-22T10:41:05.377Z,65
2017-12-22T10:42:06.109Z,65
2017-12-22T10:43:06.829Z,55
2017-12-22T10:44:07.539Z,55
2017-12-22T10:45:08.267Z,50
2017-12-22T10:46:08.997Z,50
2017-12-22T10:47:09.713Z,55
2017-12-22T10:48:10.428Z,55
2017-12-22T10:49:11.146Z,60
2017-12-22T10:50:11.862Z,65
2017-12-22T10:51:12.591Z,65
2017-12-22T10:52:13.306Z,60
2017-12-22T10:53:14.020Z,60
2017-12-22T10:54:14.737Z,55
2017-12-22T10:55:15.453Z,55
2017-12-22T10:56:16.168Z,60
2017-12-22T10:57:16.884Z,55
2017-12-22T10:58:17.613Z,55
2017-12-22T10:59:18.331Z,50
2017-12-22T11:00:19.046Z,50
2017-12-22T11:01:19.761Z,45
2017-12-22T11:02:20.477Z,50
2017-12-22T11:03:21.200Z,50
2017-12-22T11:04:21.919Z,55
2017-12-22T11:05:22.646Z,60
2017-12-22T11:06:23.362Z,60
2017-12-22T11:07:24.078Z,60
2017-12-22T11:08:24.794Z,65
2017-12-22T11:09:25.521Z,75
2017-12-22T11:10:26.251Z,90
2017-12-22T11:11:26.966Z,100
2017-12-22T11:12:27.680Z,100
2017-12-22T11:13:28.408Z,95
2017-12-22T11:14:29.125Z,80
2017-12-22T11:15:29.841Z,75
2017-12-22T11:16:30.556Z,70
2017-12-22T11:17:31.272Z,65
2017-12-22T11:18:32.002Z,70
2017-12-22T11:19:32.733Z,75
2017-12-22T11:20:33.448Z,80
2017-12-22T11:21:34.164Z,80
2017-12-22T11:22:34.900Z,85
2017-12-22T11:23:35.614Z,90
2017-12-22T11:24:36.339Z,90
2017-12-22T11:25:37.069Z,100
2017-12-22T11:26:37.788Z,100
2017-12-22T11:27:38.505Z,105
2017-12-22T11:28:39.224Z,100
2017-12-22T11:29:39.939Z,90
2017-12-22T11:30:40.657Z,85
2017-12-22T11:31:41.383Z,80
2017-12-22T11:32:42.106Z,80
2017-12-22T11:33:42.836Z,90
2017-12-22T11:34:43.566Z,95
2017-12-22T11:35:44.295Z,95
2017-12-22T11:36:45.011Z,95
2017-12-22T11:37:45.730Z,90
2017-12-22T11:38:46.446Z,85
2017-12-22T11:39:47.161Z,85
2017-12-22T11:40:47.879Z,75
2017-12-22T11:41:48.594Z,70
2017-12-22T11:42:49.310Z,75
2017-12-22T11:43:50.027Z,70
2017-12-22T11:44:50.754Z,75
2017-12-22T11:45:51.470Z,75
2017-12-22T11:46:52.187Z,75
2017-12-22T11:47:52.903Z,85
2017-12-22T11:48:53.621Z,85
2017-12-22T11:49:54.350Z,75
2017-12-22T11:50:55.064Z,65
2017-12-22T11:51:55.793Z,60
2017-12-22T11:52:56.509Z,50
2017-12-22T11:53:57.260Z,45
2017-12-22T11:54:57.941Z,45
2017-12-22T11:55:58.673Z,45
2017-12-22T11:56:59.401Z,40
2017-12-22T11:58:00.117Z,40
2017-12-22T11:59:00.835Z,40
2017-12-22T12:00:01.551Z,40
2017-12-22T12:01:02.268Z,35
2017-12-22T12:02:02.984Z,40
2017-12-22T12:03:03.699Z,40
2017-12-22T12:04:04.472Z,45
2017-12-22T12:05:05.142Z,50
2017-12-22T12:06:05.868Z,55
2017-12-22T12:07:06.575Z,55
2017-12-22T12:08:07.290Z,55
2017-12-22T12:09:08.006Z,60
2017-12-22T12:10:08.720Z,70
2017-12-22T12:11:09.438Z,75
2017-12-22T12:12:10.161Z,75
2017-12-22T12:13:10.877Z,75
2017-12-22T12:14:11.593Z,75
2017-12-22T12:15:12.308Z,85
2017-12-22T12:16:13.037Z,95
2017-12-22T12:17:13.755Z,105
2017-12-22T12:18:14.472Z,110
2017-12-22T12:19:15.190Z,115
2017-12-22T12:20:15.906Z,115
2017-12-22T12:21:16.624Z,115
2017-12-22T12:22:17.340Z,125
2017-12-22T12:23:18.060Z,130
2017-12-22T12:24:18.778Z,120
2017-12-22T12:25:19.495Z,110
2017-12-22T12:26:20.211Z,105
2017-12-22T12:27:20.929Z,100
2017-12-22T12:28:21.677Z,95
2017-12-22T12:29:22.364Z,90
2017-12-22T12:30:23.088Z,85
2017-12-22T12:31:23.806Z,85
2017-12-22T12:32:24.536Z,80
2017-12-22T12:33:25.251Z,80
2017-12-22T12:34:25.983Z,75
2017-12-22T12:35:26.701Z,70
2017-12-22T12:36:27.417Z,70
2017-12-22T12:37:28.133Z,70
2017-12-22T12:38:28.850Z,70
2017-12-22T12:39:29.564Z,70
2017-12-22T12:40:30.280Z,75
2017-12-22T12:41:31.010Z,85
2017-12-22T12:42:31.727Z,90
2017-12-22T12:43:32.443Z,100
2017-12-22T12:44:33.164Z,105
2017-12-22T12:45:33.882Z,105
2017-12-22T12:46:34.599Z,100
2017-12-22T12:47:35.316Z,95
2017-12-22T12:48:36.033Z,100
2017-12-22T12:49:36.750Z,105
2017-12-22T12:50:37.471Z,100
2017-12-22T12:51:38.185Z,90
2017-12-22T12:52:38.913Z,85
2017-12-22T12:53:39.645Z,75
2017-12-22T12:54:40.360Z,75
2017-12-22T12:55:41.082Z,70
2017-12-22T12:56:41.794Z,70
2017-12-22T12:57:42.509Z,65
2017-12-22T12:58:43.228Z,65
2017-12-22T12:59:43.944Z,65
2017-12-22T13:00:44.659Z,75
2017-12-22T13:01:45.377Z,85
2017-12-22T13:02:46.093Z,100
2017-12-22T13:03:46.823Z,110
2017-12-22T13:04:47.538Z,120
2017-12-22T13:05:48.267Z,130
2017-12-22T13:06:48.986Z,140
2017-12-22T13:07:49.705Z,140
2017-12-22T13:08:50.421Z,135
2017-12-22T13:09:51.140Z,140
2017-12-22T13:10:51.858Z,130
2017-12-22T13:11:52.589Z,125
2017-12-22T13:12:53.310Z,125
2017-12-22T13:13:54.042Z,135
2017-12-22T13:14:54.758Z,150
2017-12-22T13:15:55.474Z,165
2017-12-22T13:16:56.194Z,160
2017-12-22T13:17:56.910Z,140
2017-12-22T13:18:57.642Z,130
2017-12-22T13:19:58.373Z,120
2017-12-22T13:20:59.107Z,115
2017-12-22T13:21:59.822Z,105
2017-12-22T13:23:00.540Z,95
2017-12-22T13:24:01.257Z,85
2017-12-22T13:25:01.973Z,75
2017-12-22T13:26:02.689Z,65
2017-12-22T13:27:03.419Z,60
2017-12-22T13:28:04.138Z,60
2017-12-22T13:29:04.856Z,60
2017-12-22T13:30:05.573Z,60
2017-12-22T13:31:06.286Z,60
2017-12-22T13:32:07.018Z,55
2017-12-22T13:33:07.734Z,55
2017-12-22T13:34:08.447Z,60
2017-12-22T13:35:09.164Z,60
2017-12-22T13:36:09.879Z,65
2017-12-22T13:37:10.595Z,70
2017-12-22T13:38:11.324Z,80
2017-12-22T13:39:12.037Z,85
2017-12-22T13:40:12.751Z,95
2017-12-22T13:41:13.467Z,95
2017-12-22T13:42:14.181Z,95
2017-12-22T13:43:14.894Z,95
2017-12-22T13:44:15.612Z,90
2017-12-22T13:45:16.335Z,85
2017-12-22T13:46:17.041Z,85
2017-12-22T13:47:17.755Z,80
2017-12-22T13:48:18.469Z,75
2017-12-22T13:49:19.183Z,70
2017-12-22T13:50:19.898Z,65
2017-12-22T13:51:20.613Z,65
2017-12-22T13:52:21.329Z,60
2017-12-22T13:53:22.043Z,60
2017-12-22T13:54:22.759Z,60
2017-12-22T13:55:23.543Z,55
2017-12-22T13:56:24.203Z,60
2017-12-22T13:57:24.918Z,60
2017-12-22T13:58:25.632Z,60
2017-12-22T13:59:26.346Z,60
2017-12-22T14:00:27.063Z,60
2017-12-22T14:01:27.778Z,55
2017-12-22T14:02:28.491Z,55
2017-12-22T14:03:29.209Z,50
2017-12-22T14:04:29.925Z,50
2017-12-22T14:05:30.639Z,50
2017-12-22T14:06:31.354Z,45
2017-12-22T14:07:32.069Z,45
2017-12-22T14:08:32.797Z,45
2017-12-22T14:09:33.513Z,45
2017-12-22T14:10:34.228Z,40
2017-12-22T14:11:34.942Z,40
2017-12-22T14:12:35.671Z,35
2017-12-22T14:13:36.386Z,35
2017-12-22T14:14:37.104Z,35
2017-12-22T14:15:37.815Z,30
2017-12-22T14:16:38.543Z,30
2017-12-22T14:17:39.259Z,30
2017-12-22T14:18:39.975Z,30
2017-12-22T14:19:40.688Z,30
2017-12-22T14:20:41.402Z,30
2017-12-22T14:21:42.116Z,25
2017-12-22T14:22:42.828Z,25
2017-12-22T14:23:43.556Z,25
2017-12-22T14:24:44.268Z,25
2017-12-22T14:25:44.981Z,25
2017-12-22T14:26:45.706Z,25
2017-12-22T14:27:46.433Z,25
2017-12-22T14:28:47.129Z,25
2017-12-22T14:29:47.844Z,25
2017-12-22T14:30:48.558Z,25
2017-12-22T14:31:49.283Z,20
2017-12-22T14:32:50.001Z,20
2017-12-22T14:33:50.710Z,20
2017-12-22T14:34:51.425Z,15
2017-12-22T14:35:52.142Z,15
2017-12-22T14:36:52.850Z,15
2017-12-22T14:37:53.563Z,15
2017-12-22T14:38:54.289Z,15
2017-12-22T14:39:55.003Z,20
2017-12-22T14:40:55.734Z,20
2017-12-22T14:41:56.457Z,15